createdAt,value
2023-09-11T00:00:17.581Z,50.33
2023-09-11T00:02:48.155Z,53.90
2023-09-11T00:05:18.228Z,45.38
2023-09-11T00:07:46.709Z,49.20
2023-09-11T00:10:17.573Z,44.78
2023-09-11T00:12:49.207Z,49.15
2023-09-11T00:15:18.322Z,55.83
2023-09-11T00:17:49.305Z,54.85
2023-09-11T00:20:26.941Z,57.55
2023-09-11T00:22:57.243Z,63.17
2023-09-11T00:25:29.888Z,66.40
2023-09-11T00:27:58.508Z,69.05
2023-09-11T00:30:27.243Z,75.22
2023-09-11T00:32:57.473Z,66.13
2023-09-11T00:35:26.304Z,77.70
2023-09-11T00:37:55.158Z,77.65
2023-09-11T00:40:24.036Z,79.55
2023-09-11T00:42:52.829Z,64.55
2023-09-11T00:45:21.621Z,66.72
2023-09-11T00:47:50.328Z,69.80
2023-09-11T00:50:20.567Z,74.78
2023-09-11T00:52:49.600Z,70.03
2023-09-11T00:55:20.552Z,72.10
2023-09-11T00:57:50.508Z,76.75
2023-09-11T01:00:19.207Z,73.43
2023-09-11T01:02:48.541Z,67.05
2023-09-11T01:05:17.248Z,71.22
2023-09-11T01:07:47.539Z,69.93
2023-09-11T01:10:16.075Z,71.05
2023-09-11T01:12:44.910Z,64.15
2023-09-11T01:15:13.538Z,63.00
2023-09-11T01:17:47.616Z,61.38
2023-09-11T01:20:42.740Z,55.97
2023-09-11T01:23:34.997Z,55.83
2023-09-11T01:26:17.251Z,61.08
2023-09-11T01:29:08.379Z,53.53
2023-09-11T01:31:38.990Z,55.97
2023-09-11T01:34:08.282Z,48.22
2023-09-11T01:36:36.845Z,57.13
2023-09-11T01:39:06.329Z,49.35
2023-09-11T01:41:36.791Z,51.38
2023-09-11T01:44:14.928Z,52.60
2023-09-11T01:46:45.472Z,53.15
2023-09-11T01:49:16.177Z,60.35
2023-09-11T01:51:46.978Z,57.78
2023-09-11T01:54:15.780Z,58.20
2023-09-11T01:56:44.462Z,53.60
2023-09-11T01:59:15.467Z,57.72
2023-09-11T02:01:45.776Z,56.35
2023-09-11T02:04:14.569Z,57.20
2023-09-11T02:06:44.585Z,58.35
2023-09-11T02:09:13.449Z,53.47
2023-09-11T02:11:42.117Z,57.40
2023-09-11T02:14:12.170Z,60.63
2023-09-11T02:16:42.767Z,50.17
2023-09-11T02:19:11.382Z,56.17
2023-09-11T02:21:44.188Z,62.90
2023-09-11T02:24:13.270Z,60.88
2023-09-11T02:26:41.889Z,61.38
2023-09-11T02:29:10.820Z,62.17
2023-09-11T02:31:39.735Z,56.70
2023-09-11T02:34:09.877Z,55.45
2023-09-11T02:36:38.546Z,55.38
2023-09-11T02:39:07.418Z,56.85
2023-09-11T02:41:36.066Z,53.42
2023-09-11T02:44:04.787Z,65.10
2023-09-11T02:46:33.244Z,55.60
2023-09-11T02:49:02.485Z,56.72
2023-09-11T02:51:32.824Z,58.30
2023-09-11T02:54:02.182Z,51.58
2023-09-11T02:56:30.809Z,55.28
2023-09-11T02:59:01.492Z,61.70
2023-09-11T03:01:30.309Z,58.17
2023-09-11T03:03:59.390Z,53.67
2023-09-11T03:06:28.010Z,55.13
2023-09-11T03:08:58.995Z,55.72
2023-09-11T03:11:27.871Z,55.55
2023-09-11T03:13:56.553Z,55.95
2023-09-11T03:16:25.676Z,54.88
2023-09-11T03:18:58.102Z,64.47
2023-09-11T03:21:27.036Z,60.92
2023-09-11T03:24:00.248Z,56.90
2023-09-11T03:26:29.370Z,64.85
2023-09-11T03:28:58.403Z,57.72
2023-09-11T03:31:31.083Z,59.55
2023-09-11T03:34:01.064Z,60.17
2023-09-11T03:36:30.110Z,58.50
2023-09-11T03:39:00.403Z,54.72
2023-09-11T03:41:29.162Z,55.30
2023-09-11T03:43:58.014Z,51.63
2023-09-11T03:46:26.724Z,55.80
2023-09-11T03:48:56.235Z,55.90
2023-09-11T03:51:25.525Z,56.05
2023-09-11T03:53:55.575Z,57.40
2023-09-11T03:56:29.626Z,56.28
2023-09-11T03:58:58.627Z,61.33
2023-09-11T04:01:27.231Z,60.65
2023-09-11T04:03:56.208Z,57.60
2023-09-11T04:06:25.661Z,56.15
2023-09-11T04:08:54.298Z,58.55
2023-09-11T04:11:24.573Z,57.10
2023-09-11T04:13:54.792Z,56.25
2023-09-11T04:16:23.709Z,55.10
2023-09-11T04:18:52.606Z,54.95
2023-09-11T04:21:21.915Z,58.22
2023-09-11T04:23:53.975Z,53.35
2023-09-11T04:26:23.610Z,57.60
2023-09-11T04:28:52.242Z,56.53
2023-09-11T04:31:22.583Z,52.50
2023-09-11T04:33:51.187Z,50.05
2023-09-11T04:36:20.111Z,52.78
2023-09-11T04:38:48.733Z,54.30
2023-09-11T04:41:17.665Z,50.58
2023-09-11T04:43:47.506Z,51.78
2023-09-11T04:46:17.678Z,48.60
2023-09-11T04:48:48.148Z,51.83
2023-09-11T04:51:17.321Z,48.92
2023-09-11T04:53:45.844Z,51.40
2023-09-11T04:56:14.833Z,52.80
2023-09-11T04:58:43.673Z,49.58
2023-09-11T05:01:12.727Z,51.63
2023-09-11T05:03:43.585Z,53.70
2023-09-11T05:06:13.680Z,51.03
2023-09-11T05:09:02.359Z,50.55
2023-09-11T05:11:31.352Z,51.67
2023-09-11T05:14:00.587Z,53.63
2023-09-11T05:16:29.116Z,60.92
2023-09-11T05:18:57.706Z,57.25
2023-09-11T05:21:28.001Z,56.92
2023-09-11T05:23:56.573Z,51.08
2023-09-11T05:26:25.401Z,49.80
2023-09-11T05:28:54.103Z,52.38
2023-09-11T05:31:22.752Z,51.00
2023-09-11T05:33:51.423Z,50.28
2023-09-11T05:36:19.984Z,50.95
2023-09-11T05:38:50.624Z,48.47
2023-09-11T05:41:22.711Z,50.42
2023-09-11T05:43:51.389Z,52.38
2023-09-11T05:46:20.004Z,49.72
2023-09-11T05:48:48.864Z,47.00
2023-09-11T05:51:17.604Z,50.63
2023-09-11T05:53:46.290Z,50.42
2023-09-11T05:56:16.504Z,49.63
2023-09-11T05:58:45.303Z,46.90
2023-09-11T06:01:15.138Z,54.10
2023-09-11T06:03:44.880Z,51.58
2023-09-11T06:06:14.129Z,52.95
2023-09-11T06:08:43.615Z,52.58
2023-09-11T06:11:12.392Z,52.38
2023-09-11T06:13:43.177Z,48.53
2023-09-11T06:16:13.568Z,53.33
2023-09-11T06:18:42.660Z,53.42
2023-09-11T06:21:11.559Z,57.58
2023-09-11T06:23:42.246Z,49.95
2023-09-11T06:26:11.441Z,47.85
2023-09-11T06:28:40.278Z,52.92
2023-09-11T06:31:10.790Z,49.85
2023-09-11T06:33:39.832Z,118.40
2023-09-11T06:36:08.659Z,79.05
2023-09-11T06:38:37.220Z,56.28
2023-09-11T06:41:07.126Z,52.00
2023-09-11T06:43:35.537Z,48.08
2023-09-11T06:46:04.710Z,43.53
2023-09-11T06:48:34.665Z,49.60
2023-09-11T06:51:05.271Z,48.38
2023-09-11T06:53:34.101Z,49.88
2023-09-11T06:56:02.527Z,47.20
2023-09-11T06:58:31.923Z,42.42
2023-09-11T07:01:00.647Z,44.13
2023-09-11T07:03:29.312Z,48.63
2023-09-11T07:05:59.604Z,45.40
2023-09-11T07:08:28.643Z,43.50
2023-09-11T07:10:57.751Z,42.88
2023-09-11T07:13:26.336Z,51.35
2023-09-11T07:15:58.615Z,44.42
2023-09-11T07:18:28.062Z,47.25
2023-09-11T07:20:56.982Z,40.17
2023-09-11T07:23:29.416Z,39.42
2023-09-11T07:25:59.098Z,44.25
2023-09-11T07:28:28.769Z,44.55
2023-09-11T07:30:57.671Z,36.42
2023-09-11T07:33:26.455Z,31.65
2023-09-11T07:35:55.367Z,32.40
2023-09-11T07:38:24.079Z,28.98
2023-09-11T07:40:54.125Z,23.88
2023-09-11T07:43:23.569Z,19.48
2023-09-11T07:45:52.298Z,15.10
2023-09-11T07:48:21.055Z,9.80
2023-09-11T07:50:58.564Z,17.85
2023-09-11T07:53:28.333Z,13.60
2023-09-11T07:55:58.755Z,12.07
2023-09-11T07:58:27.643Z,14.90
2023-09-11T08:00:56.554Z,19.20
2023-09-11T08:03:25.673Z,18.20
2023-09-11T08:05:54.706Z,15.13
2023-09-11T08:08:23.315Z,14.18
2023-09-11T08:10:56.290Z,17.38
2023-09-11T08:13:28.553Z,9.45
2023-09-11T08:15:57.141Z,7.47
2023-09-11T08:18:25.736Z,9.30
2023-09-11T08:20:54.571Z,6.78
2023-09-11T08:23:23.837Z,6.97
2023-09-11T08:25:52.274Z,7.53
2023-09-11T08:28:21.647Z,11.85
2023-09-11T08:30:52.067Z,9.77
2023-09-11T08:33:20.808Z,6.53
2023-09-11T08:35:50.032Z,7.05
2023-09-11T08:38:18.692Z,8.38
2023-09-11T08:40:47.842Z,5.78
2023-09-11T08:43:16.787Z,7.75
2023-09-11T08:45:45.627Z,8.73
2023-09-11T08:48:17.538Z,6.30
2023-09-11T08:50:51.707Z,4.53
2023-09-11T08:53:21.344Z,7.32
2023-09-11T08:55:52.142Z,5.22
2023-09-11T08:58:24.546Z,8.20
2023-09-11T09:00:56.025Z,5.00
2023-09-11T09:03:28.117Z,3.75
2023-09-11T09:05:59.410Z,6.38
2023-09-11T09:08:28.834Z,4.15
2023-09-11T09:10:57.541Z,6.60
2023-09-11T09:13:28.801Z,7.45
2023-09-11T09:15:57.548Z,4.80
2023-09-11T09:18:27.802Z,7.60
2023-09-11T09:20:57.236Z,3.22
2023-09-11T09:23:34.411Z,6.88
2023-09-11T09:26:08.069Z,5.35
2023-09-11T09:28:37.614Z,8.02
2023-09-11T09:31:06.855Z,6.35
2023-09-11T09:33:37.433Z,6.95
2023-09-11T09:36:06.425Z,7.35
2023-09-11T09:38:35.613Z,7.22
2023-09-11T09:41:11.640Z,7.63
2023-09-11T09:43:40.816Z,7.93
2023-09-11T09:46:22.493Z,7.80
2023-09-11T09:48:55.301Z,8.25
2023-09-11T09:51:24.372Z,14.05
2023-09-11T09:53:56.334Z,13.35
2023-09-11T09:56:25.190Z,11.32
2023-09-11T09:58:55.644Z,8.68
2023-09-11T10:01:25.398Z,12.73
2023-09-11T10:03:56.712Z,9.35
2023-09-11T10:06:28.152Z,11.18
2023-09-11T10:09:08.883Z,8.30
2023-09-11T10:11:38.968Z,10.38
2023-09-11T10:14:09.123Z,9.00
2023-09-11T10:16:38.183Z,9.80
2023-09-11T10:19:08.483Z,7.95
2023-09-11T10:21:37.781Z,7.65
2023-09-11T10:24:07.516Z,9.60
2023-09-11T10:26:39.478Z,8.63
2023-09-11T10:29:10.501Z,10.55
2023-09-11T10:31:44.774Z,8.48
2023-09-11T10:34:14.898Z,8.65
2023-09-11T10:36:54.852Z,9.82
2023-09-11T10:39:24.694Z,9.35
2023-09-11T10:41:53.436Z,7.75
2023-09-11T10:44:22.041Z,11.18
2023-09-11T10:46:52.381Z,10.05
2023-09-11T10:49:24.362Z,6.20
2023-09-11T10:51:53.521Z,8.82
2023-09-11T10:54:23.509Z,6.88
2023-09-11T10:56:53.460Z,8.13
2023-09-11T10:59:24.683Z,6.43
2023-09-11T11:01:53.944Z,8.05
2023-09-11T11:04:26.412Z,7.60
2023-09-11T11:06:56.878Z,15.30
2023-09-11T11:09:32.984Z,15.05
2023-09-11T11:12:05.268Z,13.88
2023-09-11T11:14:35.460Z,10.93
2023-09-11T11:17:10.399Z,12.55
2023-09-11T11:19:42.358Z,12.52
2023-09-11T11:22:11.428Z,9.90
2023-09-11T11:24:53.695Z,11.32
2023-09-11T11:27:22.307Z,10.38
2023-09-11T11:29:50.821Z,7.80
2023-09-11T11:32:20.686Z,10.15
2023-09-11T11:34:51.792Z,8.05
2023-09-11T11:37:22.646Z,13.82
2023-09-11T11:39:51.796Z,12.55
2023-09-11T11:42:23.415Z,10.52
2023-09-11T11:44:52.218Z,14.45
2023-09-11T11:47:21.687Z,13.48
2023-09-11T11:49:57.335Z,11.13
2023-09-11T11:52:28.956Z,7.63
2023-09-11T11:55:03.899Z,8.82
2023-09-11T11:57:35.629Z,10.63
2023-09-11T12:00:15.396Z,9.27
2023-09-11T12:02:47.235Z,10.85
2023-09-11T12:05:18.234Z,10.32
2023-09-11T12:07:46.996Z,11.30
2023-09-11T12:10:20.810Z,13.93
2023-09-11T12:18:39.297Z,12.98
2023-09-11T12:21:09.988Z,16.20
2023-09-11T12:23:38.960Z,11.82
2023-09-11T12:26:09.127Z,12.65
2023-09-11T12:28:38.558Z,11.43
2023-09-11T12:31:07.174Z,14.15
2023-09-11T12:33:36.965Z,16.95
2023-09-11T12:36:06.068Z,12.70
2023-09-11T12:38:36.594Z,14.20
2023-09-11T12:41:06.507Z,13.27
2023-09-11T12:43:35.249Z,15.38
2023-09-11T12:46:05.133Z,20.15
2023-09-11T12:48:34.639Z,23.58
2023-09-11T12:51:07.337Z,20.83
2023-09-11T12:53:38.787Z,19.70
2023-09-11T12:56:09.986Z,22.33
2023-09-11T12:58:40.770Z,23.63
2023-09-11T13:01:14.023Z,21.27
2023-09-11T13:03:47.406Z,22.67
2023-09-11T13:06:16.330Z,26.15
2023-09-11T13:08:46.725Z,24.45
2023-09-11T13:11:15.838Z,23.02
2023-09-11T13:13:44.754Z,18.60
2023-09-11T13:16:15.034Z,26.00
2023-09-11T13:18:43.580Z,27.48
2023-09-11T13:21:12.273Z,21.80
2023-09-11T13:23:42.858Z,21.83
2023-09-11T13:26:13.688Z,24.05
2023-09-11T13:28:42.166Z,21.15
2023-09-11T13:31:10.766Z,20.70
2023-09-11T13:33:39.722Z,25.45
2023-09-11T13:36:08.916Z,27.13
2023-09-11T13:38:37.855Z,27.52
2023-09-11T13:41:07.124Z,21.88
2023-09-11T13:43:37.198Z,22.52
2023-09-11T13:46:06.958Z,27.30
2023-09-11T13:48:35.707Z,32.88
2023-09-11T13:51:05.048Z,36.47
2023-09-11T13:53:33.701Z,32.63
2023-09-11T13:56:02.680Z,23.27
2023-09-11T13:58:31.184Z,20.20
2023-09-11T14:01:01.356Z,28.02
2023-09-11T14:03:30.522Z,22.00
2023-09-11T14:06:01.856Z,22.70
2023-09-11T14:08:30.665Z,28.63
2023-09-11T14:10:59.324Z,21.80
2023-09-11T14:13:28.031Z,21.77
2023-09-11T14:15:57.075Z,22.77
2023-09-11T14:18:30.126Z,23.20
2023-09-11T14:20:58.836Z,21.70
2023-09-11T14:23:27.609Z,25.25
2023-09-11T14:25:57.542Z,23.05
2023-09-11T14:28:26.368Z,22.55
2023-09-11T14:30:55.239Z,21.85
2023-09-11T14:33:23.985Z,23.17
2023-09-11T14:35:54.022Z,22.38
2023-09-11T14:38:28.254Z,19.40
2023-09-11T14:40:57.414Z,21.70
2023-09-11T14:43:26.080Z,23.77
2023-09-11T14:45:54.675Z,20.65
2023-09-11T14:48:23.442Z,25.88
2023-09-11T14:50:53.535Z,15.90
2023-09-11T14:53:22.405Z,19.98
2023-09-11T14:55:51.272Z,20.52
2023-09-11T14:58:19.847Z,18.08
2023-09-11T15:00:48.688Z,15.95
2023-09-11T15:03:17.288Z,16.30
2023-09-11T15:05:46.138Z,14.05
2023-09-11T15:08:16.476Z,17.33
2023-09-11T15:10:47.387Z,13.95
2023-09-11T15:13:16.478Z,14.98
2023-09-11T15:15:45.594Z,17.90
2023-09-11T15:18:14.638Z,18.70
2023-09-11T15:20:46.108Z,17.52
2023-09-11T15:23:16.791Z,15.57
2023-09-11T15:25:45.638Z,16.92
2023-09-11T15:28:14.389Z,20.83
2023-09-11T15:30:43.304Z,18.13
2023-09-11T15:33:13.410Z,22.02
2023-09-11T15:36:03.937Z,16.83
2023-09-11T15:38:37.491Z,22.27
2023-09-11T15:41:06.612Z,21.15
2023-09-11T15:43:36.612Z,35.33
2023-09-11T15:46:06.247Z,19.65
2023-09-11T15:48:38.337Z,22.65
2023-09-11T15:51:07.933Z,29.08
2023-09-11T15:53:39.859Z,24.35
2023-09-11T15:56:08.622Z,24.80
2023-09-11T15:58:37.211Z,28.75
2023-09-11T16:01:06.324Z,18.10
2023-09-11T16:03:35.037Z,17.50
2023-09-11T16:06:05.618Z,25.42
2023-09-11T16:08:34.178Z,24.88
2023-09-11T16:11:04.491Z,26.25
2023-09-11T16:13:34.003Z,15.07
2023-09-11T16:16:02.876Z,19.58
2023-09-11T16:18:31.800Z,21.13
2023-09-11T16:21:00.535Z,20.92
2023-09-11T16:23:31.765Z,19.45
2023-09-11T16:26:00.521Z,17.55
2023-09-11T16:28:33.125Z,26.85
2023-09-11T16:31:01.932Z,22.80
2023-09-11T16:33:30.586Z,21.98
2023-09-11T16:35:59.432Z,18.50
2023-09-11T16:38:27.973Z,20.58
2023-09-11T16:40:56.606Z,19.17
2023-09-11T16:43:25.761Z,20.70
2023-09-11T16:45:55.663Z,19.10
2023-09-11T16:48:24.260Z,25.17
2023-09-11T16:50:53.219Z,22.40
2023-09-11T16:53:21.627Z,21.52
2023-09-11T16:55:50.708Z,22.95
2023-09-11T16:58:19.303Z,21.83
2023-09-11T17:00:48.131Z,24.98
2023-09-11T17:03:18.411Z,21.75
2023-09-11T17:05:47.555Z,22.33
2023-09-11T17:08:16.665Z,26.25
2023-09-11T17:10:45.408Z,27.02
2023-09-11T17:13:14.149Z,20.65
2023-09-11T17:15:42.614Z,18.88
2023-09-11T17:18:11.200Z,23.63
2023-09-11T17:20:43.064Z,21.02
2023-09-11T17:23:13.205Z,26.40
2023-09-11T17:25:44.965Z,19.05
2023-09-11T17:28:13.630Z,24.95
2023-09-11T17:30:42.479Z,20.08
2023-09-11T17:33:11.670Z,23.00
2023-09-11T17:35:40.613Z,43.35
2023-09-11T17:38:10.723Z,20.83
2023-09-11T17:40:39.595Z,29.48
2023-09-11T17:43:08.307Z,23.58
2023-09-11T17:45:38.143Z,29.08
2023-09-11T17:48:07.297Z,46.20
2023-09-11T17:50:35.928Z,22.70
2023-09-11T17:53:04.659Z,28.13
2023-09-11T17:55:34.883Z,28.52
2023-09-11T17:58:04.172Z,25.63
2023-09-11T18:00:32.731Z,21.70
2023-09-11T18:03:01.739Z,25.00
2023-09-11T18:05:30.708Z,24.23
2023-09-11T18:07:59.466Z,20.73
2023-09-11T18:10:28.337Z,24.42
2023-09-11T18:12:59.036Z,22.40
2023-09-11T18:15:27.976Z,23.52
2023-09-11T18:17:57.020Z,21.10
2023-09-11T18:20:25.683Z,19.33
2023-09-11T18:22:54.175Z,21.63
2023-09-11T18:25:23.350Z,23.70
2023-09-11T18:27:51.801Z,25.27
2023-09-11T18:30:22.009Z,21.48
2023-09-11T18:32:50.828Z,28.38
2023-09-11T18:35:19.322Z,22.52
2023-09-11T18:37:50.632Z,23.60
2023-09-11T18:40:19.952Z,23.13
2023-09-11T18:42:48.524Z,26.02
2023-09-11T18:45:17.954Z,25.23
2023-09-11T18:47:49.182Z,25.90
2023-09-11T18:50:18.952Z,27.10
2023-09-11T18:52:47.945Z,20.95
2023-09-11T18:55:17.080Z,24.20
2023-09-11T18:57:45.703Z,26.73
2023-09-11T19:00:16.503Z,22.90
2023-09-11T19:02:45.559Z,21.98
2023-09-11T19:05:15.655Z,26.65
2023-09-11T19:07:44.574Z,26.25
2023-09-11T19:10:13.780Z,39.63
2023-09-11T19:12:44.018Z,33.65
2023-09-11T19:15:13.875Z,24.63
2023-09-11T19:17:42.826Z,22.88
2023-09-11T19:20:12.129Z,24.58
2023-09-11T19:22:42.217Z,27.80
2023-09-11T19:25:11.935Z,24.17
2023-09-11T19:27:41.292Z,27.08
2023-09-11T19:30:11.669Z,24.80
2023-09-11T19:32:41.307Z,27.98
2023-09-11T19:35:10.429Z,26.67
2023-09-11T19:37:38.922Z,23.80
2023-09-11T19:40:11.768Z,21.27
2023-09-11T19:42:40.468Z,26.45
2023-09-11T19:45:09.809Z,23.23
2023-09-11T19:47:38.573Z,28.80
2023-09-11T19:50:08.350Z,24.73
2023-09-11T19:52:37.053Z,21.63
2023-09-11T19:55:06.057Z,27.00
2023-09-11T19:57:37.526Z,27.90
2023-09-11T20:00:08.109Z,24.35
2023-09-11T20:02:39.711Z,25.30
2023-09-11T20:05:09.261Z,22.85
2023-09-11T20:07:37.820Z,24.00
2023-09-11T20:10:07.307Z,27.60
2023-09-11T20:12:38.633Z,23.92
2023-09-11T20:15:08.928Z,23.17
2023-09-11T20:17:38.780Z,25.63
2023-09-11T20:20:08.822Z,23.88
2023-09-11T20:22:37.719Z,29.42
2023-09-11T20:25:06.875Z,27.77
2023-09-11T20:27:37.113Z,32.92
2023-09-11T20:30:06.420Z,26.02
2023-09-11T20:32:35.287Z,29.05
2023-09-11T20:35:04.402Z,31.05
2023-09-11T20:37:35.373Z,28.35
2023-09-11T20:40:04.573Z,30.02
2023-09-11T20:42:34.446Z,32.92
2023-09-11T20:45:04.679Z,30.40
2023-09-11T20:47:33.851Z,27.85
2023-09-11T20:50:02.704Z,27.77
2023-09-11T20:52:33.144Z,30.08
2023-09-11T20:55:05.254Z,29.52
2023-09-11T20:57:34.912Z,30.88
2023-09-11T21:00:05.494Z,31.73
2023-09-11T21:02:37.146Z,33.07
2023-09-11T21:05:09.564Z,26.98
2023-09-11T21:07:41.133Z,32.30
2023-09-11T21:10:10.734Z,28.75
2023-09-11T21:12:51.697Z,34.75
2023-09-11T21:15:22.504Z,26.85
2023-09-11T21:17:52.310Z,31.20
2023-09-11T21:20:21.588Z,30.17
2023-09-11T21:22:50.473Z,30.17
2023-09-11T21:25:20.799Z,32.30
2023-09-11T21:27:51.237Z,29.30
2023-09-11T21:30:21.827Z,29.48
2023-09-11T21:32:51.046Z,27.35
2023-09-11T21:35:20.153Z,29.90
2023-09-11T21:37:49.253Z,35.25
2023-09-11T21:40:20.856Z,33.22
2023-09-11T21:42:51.679Z,37.22
2023-09-11T21:45:22.110Z,32.42
2023-09-11T21:47:51.291Z,30.05
2023-09-11T21:50:19.963Z,36.80
2023-09-11T21:52:48.898Z,30.85
2023-09-11T21:55:18.432Z,26.85
2023-09-11T21:57:47.788Z,28.88
2023-09-11T22:00:17.306Z,30.48
2023-09-11T22:02:49.365Z,30.67
2023-09-11T22:05:19.530Z,36.78
2023-09-11T22:07:48.216Z,34.13
2023-09-11T22:10:16.964Z,34.70
2023-09-11T22:12:47.639Z,32.25
2023-09-11T22:15:16.721Z,31.88
2023-09-11T22:17:45.469Z,28.25
2023-09-11T22:20:16.408Z,34.40
2023-09-11T22:22:45.535Z,32.47
2023-09-11T22:25:14.289Z,32.00
2023-09-11T22:27:43.848Z,35.00
2023-09-11T22:30:13.187Z,30.67
2023-09-11T22:32:53.617Z,32.58
2023-09-11T22:35:30.574Z,29.85
2023-09-11T22:38:04.367Z,33.25
2023-09-11T22:40:35.238Z,32.15
2023-09-11T22:43:06.096Z,27.33
2023-09-11T22:45:34.951Z,34.20
2023-09-11T22:48:06.786Z,35.10
2023-09-11T22:50:39.821Z,34.70
2023-09-11T22:53:10.614Z,30.83
2023-09-11T22:55:39.476Z,33.83
2023-09-11T22:58:08.842Z,29.77
2023-09-11T23:00:40.922Z,31.85
2023-09-11T23:03:10.955Z,29.98
2023-09-11T23:05:42.623Z,31.98
2023-09-11T23:08:11.435Z,35.03
2023-09-11T23:10:40.249Z,34.10
2023-09-11T23:13:08.793Z,37.17
2023-09-11T23:15:37.749Z,33.83
2023-09-11T23:18:07.227Z,28.85
2023-09-11T23:20:35.771Z,29.65
2023-09-11T23:23:06.238Z,35.15
2023-09-11T23:25:36.414Z,28.88
2023-09-11T23:28:05.854Z,33.60
2023-09-11T23:30:34.736Z,31.63
2023-09-11T23:33:03.427Z,33.35
2023-09-11T23:35:32.371Z,32.38
2023-09-11T23:38:01.373Z,38.65
2023-09-11T23:40:31.906Z,31.65
2023-09-11T23:43:02.148Z,31.65
2023-09-11T23:45:30.806Z,31.20
2023-09-11T23:47:59.541Z,32.42
2023-09-11T23:50:28.251Z,31.70
2023-09-11T23:52:57.376Z,33.42
2023-09-11T23:55:26.400Z,33.65
2023-09-11T23:57:56.336Z,34.97
